sensor_id;sensor_type;location;lat;lon;timestamp;pressure;altitude;pressure_sealevel;temperature
48894;BMP280;34710;35.798;139.446;2023-06-22T00:00:27;100199.42;;;25.15
48894;BMP280;34710;35.798;139.446;2023-06-22T00:02:52;100199.92;;;25.16
48894;BMP280;34710;35.798;139.446;2023-06-22T00:05:17;100201.27;;;25.16
48894;BMP280;34710;35.798;139.446;2023-06-22T00:07:43;100209.45;;;25.20
48894;BMP280;34710;35.798;139.446;2023-06-22T00:10:08;100216.61;;;24.62
48894;BMP280;34710;35.798;139.446;2023-06-22T00:12:32;100217.81;;;25.23
48894;BMP280;34710;35.798;139.446;2023-06-22T00:14:58;100216.37;;;25.24
48894;BMP280;34710;35.798;139.446;2023-06-22T00:17:24;100211.05;;;25.23
48894;BMP280;34710;35.798;139.446;2023-06-22T00:19:49;100208.37;;;25.10
48894;BMP280;34710;35.798;139.446;2023-06-22T00:22:15;100207.26;;;24.94
48894;BMP280;34710;35.798;139.446;2023-06-22T00:24:40;100210.07;;;25.09
48894;BMP280;34710;35.798;139.446;2023-06-22T00:27:06;100218.58;;;25.02
48894;BMP280;34710;35.798;139.446;2023-06-22T00:29:30;100222.35;;;24.34
48894;BMP280;34710;35.798;139.446;2023-06-22T00:31:56;100215.65;;;24.68
48894;BMP280;34710;35.798;139.446;2023-06-22T00:34:21;100210.36;;;24.96
48894;BMP280;34710;35.798;139.446;2023-06-22T00:36:46;100218.77;;;25.03
48894;BMP280;34710;35.798;139.446;2023-06-22T00:39:13;100232.15;;;24.87
48894;BMP280;34710;35.798;139.446;2023-06-22T00:41:37;100235.36;;;24.71
48894;BMP280;34710;35.798;139.446;2023-06-22T00:44:02;100235.21;;;24.51
48894;BMP280;34710;35.798;139.446;2023-06-22T00:46:27;100230.04;;;24.51
48894;BMP280;34710;35.798;139.446;2023-06-22T00:48:54;100228.83;;;24.57
48894;BMP280;34710;35.798;139.446;2023-06-22T00:51:18;100234.57;;;24.83
48894;BMP280;34710;35.798;139.446;2023-06-22T00:53:44;100240.34;;;25.02
48894;BMP280;34710;35.798;139.446;2023-06-22T00:56:08;100239.21;;;24.68
48894;BMP280;34710;35.798;139.446;2023-06-22T00:58:35;100238.70;;;24.53
48894;BMP280;34710;35.798;139.446;2023-06-22T01:00:59;100241.58;;;24.38
48894;BMP280;34710;35.798;139.446;2023-06-22T01:03:24;100239.00;;;24.30
48894;BMP280;34710;35.798;139.446;2023-06-22T01:05:50;100235.65;;;24.34
48894;BMP280;34710;35.798;139.446;2023-06-22T01:08:26;100229.35;;;24.08
48894;BMP280;34710;35.798;139.446;2023-06-22T01:10:44;100223.44;;;24.22
48894;BMP280;34710;35.798;139.446;2023-06-22T01:13:11;100223.91;;;24.33
48894;BMP280;34710;35.798;139.446;2023-06-22T01:15:33;100222.18;;;24.44
48894;BMP280;34710;35.798;139.446;2023-06-22T01:17:58;100231.67;;;24.65
48894;BMP280;34710;35.798;139.446;2023-06-22T01:20:21;100241.31;;;24.20
48894;BMP280;34710;35.798;139.446;2023-06-22T01:22:57;100246.79;;;23.72
48894;BMP280;34710;35.798;139.446;2023-06-22T01:25:15;100247.80;;;23.84
48894;BMP280;34710;35.798;139.446;2023-06-22T01:27:46;100247.09;;;22.96
48894;BMP280;34710;35.798;139.446;2023-06-22T01:30:01;100247.82;;;23.50
48894;BMP280;34710;35.798;139.446;2023-06-22T01:32:27;100255.49;;;23.64
48894;BMP280;34710;35.798;139.446;2023-06-22T01:34:51;100263.36;;;22.24
48894;BMP280;34710;35.798;139.446;2023-06-22T01:37:16;100262.73;;;22.58
48894;BMP280;34710;35.798;139.446;2023-06-22T01:39:42;100264.14;;;23.27
48894;BMP280;34710;35.798;139.446;2023-06-22T01:42:07;100268.44;;;23.13
48894;BMP280;34710;35.798;139.446;2023-06-22T01:44:32;100261.19;;;22.26
48894;BMP280;34710;35.798;139.446;2023-06-22T01:46:57;100256.21;;;23.26
48894;BMP280;34710;35.798;139.446;2023-06-22T01:49:22;100247.31;;;23.38
48894;BMP280;34710;35.798;139.446;2023-06-22T01:51:47;100244.69;;;22.89
48894;BMP280;34710;35.798;139.446;2023-06-22T01:54:12;100244.49;;;22.65
48894;BMP280;34710;35.798;139.446;2023-06-22T01:56:38;100242.32;;;22.54
48894;BMP280;34710;35.798;139.446;2023-06-22T01:59:07;100240.27;;;22.49
48894;BMP280;34710;35.798;139.446;2023-06-22T02:01:34;100227.77;;;22.42
48894;BMP280;34710;35.798;139.446;2023-06-22T02:04:00;100232.39;;;22.21
48894;BMP280;34710;35.798;139.446;2023-06-22T02:06:21;100230.89;;;22.14
48894;BMP280;34710;35.798;139.446;2023-06-22T02:08:49;100230.41;;;22.48
48894;BMP280;34710;35.798;139.446;2023-06-22T02:11:09;100228.47;;;22.11
48894;BMP280;34710;35.798;139.446;2023-06-22T02:13:34;100231.21;;;21.62
48894;BMP280;34710;35.798;139.446;2023-06-22T02:15:58;100233.68;;;21.99
48894;BMP280;34710;35.798;139.446;2023-06-22T02:18:23;100233.32;;;21.36
48894;BMP280;34710;35.798;139.446;2023-06-22T02:20:49;100223.64;;;20.88
48894;BMP280;34710;35.798;139.446;2023-06-22T02:23:14;100221.26;;;21.11
48894;BMP280;34710;35.798;139.446;2023-06-22T02:25:39;100224.74;;;21.47
48894;BMP280;34710;35.798;139.446;2023-06-22T02:28:05;100227.85;;;21.85
48894;BMP280;34710;35.798;139.446;2023-06-22T02:30:30;100226.79;;;21.67
48894;BMP280;34710;35.798;139.446;2023-06-22T02:32:55;100218.00;;;21.98
48894;BMP280;34710;35.798;139.446;2023-06-22T02:35:20;100215.71;;;21.84
48894;BMP280;34710;35.798;139.446;2023-06-22T02:37:45;100210.80;;;21.88
48894;BMP280;34710;35.798;139.446;2023-06-22T02:40:11;100208.30;;;22.16
48894;BMP280;34710;35.798;139.446;2023-06-22T02:42:35;100209.49;;;21.87
48894;BMP280;34710;35.798;139.446;2023-06-22T02:45:00;100218.29;;;21.41
48894;BMP280;34710;35.798;139.446;2023-06-22T02:47:26;100211.78;;;21.84
48894;BMP280;34710;35.798;139.446;2023-06-22T02:49:51;100204.78;;;21.62
48894;BMP280;34710;35.798;139.446;2023-06-22T02:52:16;100205.97;;;21.64
48894;BMP280;34710;35.798;139.446;2023-06-22T02:54:41;100203.64;;;20.57
48894;BMP280;34710;35.798;139.446;2023-06-22T02:57:07;100202.59;;;20.45
48894;BMP280;34710;35.798;139.446;2023-06-22T02:59:31;100198.47;;;21.68
48894;BMP280;34710;35.798;139.446;2023-06-22T03:01:56;100191.48;;;21.07
48894;BMP280;34710;35.798;139.446;2023-06-22T03:04:22;100187.94;;;21.87
48894;BMP280;34710;35.798;139.446;2023-06-22T03:06:48;100186.02;;;22.12
48894;BMP280;34710;35.798;139.446;2023-06-22T03:09:13;100180.93;;;22.18
48894;BMP280;34710;35.798;139.446;2023-06-22T03:11:38;100176.92;;;22.42
48894;BMP280;34710;35.798;139.446;2023-06-22T03:14:03;100179.29;;;22.39
48894;BMP280;34710;35.798;139.446;2023-06-22T03:16:28;100183.90;;;22.24
48894;BMP280;34710;35.798;139.446;2023-06-22T03:18:53;100180.06;;;22.16
48894;BMP280;34710;35.798;139.446;2023-06-22T03:21:18;100174.67;;;21.91
48894;BMP280;34710;35.798;139.446;2023-06-22T03:23:43;100168.53;;;22.33
48894;BMP280;34710;35.798;139.446;2023-06-22T03:26:09;100175.17;;;22.54
48894;BMP280;34710;35.798;139.446;2023-06-22T03:28:34;100182.80;;;22.28
48894;BMP280;34710;35.798;139.446;2023-06-22T03:30:59;100186.18;;;22.22
48894;BMP280;34710;35.798;139.446;2023-06-22T03:33:24;100192.41;;;22.30
48894;BMP280;34710;35.798;139.446;2023-06-22T03:35:49;100196.90;;;22.32
48894;BMP280;34710;35.798;139.446;2023-06-22T03:38:15;100193.79;;;21.93
48894;BMP280;34710;35.798;139.446;2023-06-22T03:40:40;100198.69;;;21.89
48894;BMP280;34710;35.798;139.446;2023-06-22T03:43:05;100197.48;;;22.30
48894;BMP280;34710;35.798;139.446;2023-06-22T03:45:30;100198.18;;;21.90
48894;BMP280;34710;35.798;139.446;2023-06-22T03:47:55;100207.97;;;21.73
48894;BMP280;34710;35.798;139.446;2023-06-22T03:50:20;100206.69;;;21.94
48894;BMP280;34710;35.798;139.446;2023-06-22T03:52:46;100207.35;;;21.63
48894;BMP280;34710;35.798;139.446;2023-06-22T03:55:11;100202.63;;;21.71
48894;BMP280;34710;35.798;139.446;2023-06-22T03:57:36;100200.02;;;21.66
48894;BMP280;34710;35.798;139.446;2023-06-22T04:00:01;100194.06;;;21.78
48894;BMP280;34710;35.798;139.446;2023-06-22T04:02:26;100189.42;;;22.02
48894;BMP280;34710;35.798;139.446;2023-06-22T04:04:52;100185.82;;;22.04
48894;BMP280;34710;35.798;139.446;2023-06-22T04:07:17;100191.00;;;20.59
48894;BMP280;34710;35.798;139.446;2023-06-22T04:09:42;100181.09;;;22.21
48894;BMP280;34710;35.798;139.446;2023-06-22T04:12:08;100171.48;;;21.72
48894;BMP280;34710;35.798;139.446;2023-06-22T04:14:32;100169.04;;;21.51
48894;BMP280;34710;35.798;139.446;2023-06-22T04:16:57;100162.81;;;21.78
48894;BMP280;34710;35.798;139.446;2023-06-22T04:19:22;100152.16;;;22.19
48894;BMP280;34710;35.798;139.446;2023-06-22T04:21:48;100149.18;;;22.12
48894;BMP280;34710;35.798;139.446;2023-06-22T04:24:13;100145.07;;;22.48
48894;BMP280;34710;35.798;139.446;2023-06-22T04:26:38;100136.57;;;22.47
48894;BMP280;34710;35.798;139.446;2023-06-22T04:29:04;100131.66;;;21.90
48894;BMP280;34710;35.798;139.446;2023-06-22T04:31:29;100133.04;;;22.83
48894;BMP280;34710;35.798;139.446;2023-06-22T04:33:54;100136.97;;;22.70
48894;BMP280;34710;35.798;139.446;2023-06-22T04:36:19;100133.47;;;22.77
48894;BMP280;34710;35.798;139.446;2023-06-22T04:38:44;100131.52;;;22.38
48894;BMP280;34710;35.798;139.446;2023-06-22T04:41:10;100124.73;;;22.41
48894;BMP280;34710;35.798;139.446;2023-06-22T04:43:35;100128.30;;;21.69
48894;BMP280;34710;35.798;139.446;2023-06-22T04:46:01;100122.79;;;22.43
48894;BMP280;34710;35.798;139.446;2023-06-22T04:48:26;100122.68;;;22.53
48894;BMP280;34710;35.798;139.446;2023-06-22T04:50:51;100117.62;;;22.71
48894;BMP280;34710;35.798;139.446;2023-06-22T04:53:17;100118.67;;;21.88
48894;BMP280;34710;35.798;139.446;2023-06-22T04:55:42;100112.93;;;22.29
48894;BMP280;34710;35.798;139.446;2023-06-22T04:58:08;100110.88;;;22.74
48894;BMP280;34710;35.798;139.446;2023-06-22T05:00:33;100106.31;;;22.40
48894;BMP280;34710;35.798;139.446;2023-06-22T05:02:58;100105.94;;;23.05
48894;BMP280;34710;35.798;139.446;2023-06-22T05:05:24;100104.88;;;22.48
48894;BMP280;34710;35.798;139.446;2023-06-22T05:07:51;100102.30;;;22.38
48894;BMP280;34710;35.798;139.446;2023-06-22T05:10:16;100097.64;;;22.45
48894;BMP280;34710;35.798;139.446;2023-06-22T05:12:40;100099.11;;;21.29
48894;BMP280;34710;35.798;139.446;2023-06-22T05:15:06;100089.75;;;22.13
48894;BMP280;34710;35.798;139.446;2023-06-22T05:17:30;100077.78;;;23.00
48894;BMP280;34710;35.798;139.446;2023-06-22T05:19:55;100073.69;;;23.24
48894;BMP280;34710;35.798;139.446;2023-06-22T05:22:21;100068.74;;;23.38
48894;BMP280;34710;35.798;139.446;2023-06-22T05:24:47;100060.73;;;23.18
48894;BMP280;34710;35.798;139.446;2023-06-22T05:27:13;100060.36;;;23.05
48894;BMP280;34710;35.798;139.446;2023-06-22T05:29:37;100066.03;;;23.52
48894;BMP280;34710;35.798;139.446;2023-06-22T05:32:03;100059.39;;;23.39
48894;BMP280;34710;35.798;139.446;2023-06-22T05:34:28;100055.00;;;23.47
48894;BMP280;34710;35.798;139.446;2023-06-22T05:36:53;100048.60;;;23.59
48894;BMP280;34710;35.798;139.446;2023-06-22T05:39:18;100042.06;;;23.58
48894;BMP280;34710;35.798;139.446;2023-06-22T05:41:44;100039.66;;;22.94
48894;BMP280;34710;35.798;139.446;2023-06-22T05:44:09;100039.17;;;23.00
48894;BMP280;34710;35.798;139.446;2023-06-22T05:46:34;100031.98;;;23.59
48894;BMP280;34710;35.798;139.446;2023-06-22T05:48:59;100027.06;;;23.70
48894;BMP280;34710;35.798;139.446;2023-06-22T05:51:24;100025.28;;;23.26
48894;BMP280;34710;35.798;139.446;2023-06-22T05:53:49;100024.24;;;23.44
48894;BMP280;34710;35.798;139.446;2023-06-22T05:56:14;100016.41;;;23.74
48894;BMP280;34710;35.798;139.446;2023-06-22T05:58:39;100013.30;;;23.60
48894;BMP280;34710;35.798;139.446;2023-06-22T06:01:05;100010.20;;;24.20
48894;BMP280;34710;35.798;139.446;2023-06-22T06:03:30;100012.84;;;23.87
48894;BMP280;34710;35.798;139.446;2023-06-22T06:05:55;100017.39;;;23.95
48894;BMP280;34710;35.798;139.446;2023-06-22T06:08:20;100023.75;;;24.15
48894;BMP280;34710;35.798;139.446;2023-06-22T06:10:45;100020.74;;;24.17
48894;BMP280;34710;35.798;139.446;2023-06-22T06:13:10;100017.12;;;24.06
48894;BMP280;34710;35.798;139.446;2023-06-22T06:15:37;100019.28;;;23.77
48894;BMP280;34710;35.798;139.446;2023-06-22T06:18:01;100023.79;;;24.08
48894;BMP280;34710;35.798;139.446;2023-06-22T06:20:27;100022.88;;;23.88
48894;BMP280;34710;35.798;139.446;2023-06-22T06:22:52;100021.99;;;23.45
48894;BMP280;34710;35.798;139.446;2023-06-22T06:25:17;100020.01;;;23.74
48894;BMP280;34710;35.798;139.446;2023-06-22T06:27:43;100018.74;;;22.31
48894;BMP280;34710;35.798;139.446;2023-06-22T06:30:09;100014.00;;;23.89
48894;BMP280;34710;35.798;139.446;2023-06-22T06:32:33;100007.65;;;24.22
48894;BMP280;34710;35.798;139.446;2023-06-22T06:34:58;100004.18;;;23.79
48894;BMP280;34710;35.798;139.446;2023-06-22T06:37:23;100004.99;;;24.75
48894;BMP280;34710;35.798;139.446;2023-06-22T06:39:48;100004.70;;;23.72
48894;BMP280;34710;35.798;139.446;2023-06-22T06:42:13;100007.04;;;23.78
48894;BMP280;34710;35.798;139.446;2023-06-22T06:44:38;100012.65;;;23.41
48894;BMP280;34710;35.798;139.446;2023-06-22T06:47:04;100017.72;;;22.80
48894;BMP280;34710;35.798;139.446;2023-06-22T06:49:29;100016.04;;;23.35
48894;BMP280;34710;35.798;139.446;2023-06-22T06:51:54;100015.16;;;23.10
48894;BMP280;34710;35.798;139.446;2023-06-22T06:54:19;100014.50;;;22.81
48894;BMP280;34710;35.798;139.446;2023-06-22T06:56:45;100008.28;;;22.88
48894;BMP280;34710;35.798;139.446;2023-06-22T06:59:10;100002.14;;;22.76
48894;BMP280;34710;35.798;139.446;2023-06-22T07:01:36;100003.02;;;22.76
48894;BMP280;34710;35.798;139.446;2023-06-22T07:04:02;100004.27;;;22.31
48894;BMP280;34710;35.798;139.446;2023-06-22T07:06:27;99997.11;;;22.23
48894;BMP280;34710;35.798;139.446;2023-06-22T07:08:52;99992.86;;;21.90
48894;BMP280;34710;35.798;139.446;2023-06-22T07:11:18;99991.58;;;22.58
48894;BMP280;34710;35.798;139.446;2023-06-22T07:13:43;99989.14;;;21.97
48894;BMP280;34710;35.798;139.446;2023-06-22T07:16:08;99989.59;;;22.47
48894;BMP280;34710;35.798;139.446;2023-06-22T07:18:34;99987.86;;;22.06
48894;BMP280;34710;35.798;139.446;2023-06-22T07:20:59;99987.95;;;22.57
48894;BMP280;34710;35.798;139.446;2023-06-22T07:23:25;99989.62;;;22.10
48894;BMP280;34710;35.798;139.446;2023-06-22T07:25:49;99988.48;;;22.20
48894;BMP280;34710;35.798;139.446;2023-06-22T07:28:15;99982.26;;;22.67
48894;BMP280;34710;35.798;139.446;2023-06-22T07:30:40;99973.19;;;21.35
48894;BMP280;34710;35.798;139.446;2023-06-22T07:33:05;99972.12;;;22.19
48894;BMP280;34710;35.798;139.446;2023-06-22T07:35:31;99973.70;;;21.39
48894;BMP280;34710;35.798;139.446;2023-06-22T07:37:56;99984.80;;;21.66
48894;BMP280;34710;35.798;139.446;2023-06-22T07:40:21;99993.59;;;21.93
48894;BMP280;34710;35.798;139.446;2023-06-22T07:42:46;99994.70;;;21.83
48894;BMP280;34710;35.798;139.446;2023-06-22T07:45:12;99992.37;;;22.08
48894;BMP280;34710;35.798;139.446;2023-06-22T07:47:38;99988.55;;;21.88
48894;BMP280;34710;35.798;139.446;2023-06-22T07:50:04;99985.93;;;21.86
48894;BMP280;34710;35.798;139.446;2023-06-22T07:52:28;99978.72;;;21.99
48894;BMP280;34710;35.798;139.446;2023-06-22T07:54:53;99979.25;;;21.78
48894;BMP280;34710;35.798;139.446;2023-06-22T07:57:19;99981.33;;;21.22
48894;BMP280;34710;35.798;139.446;2023-06-22T07:59:45;99978.41;;;21.52
48894;BMP280;34710;35.798;139.446;2023-06-22T08:02:10;99978.10;;;21.68
48894;BMP280;34710;35.798;139.446;2023-06-22T08:04:34;99983.05;;;21.51
48894;BMP280;34710;35.798;139.446;2023-06-22T08:07:00;99978.05;;;21.49
48894;BMP280;34710;35.798;139.446;2023-06-22T08:09:25;99974.25;;;21.97
48894;BMP280;34710;35.798;139.446;2023-06-22T08:11:50;99974.36;;;20.92
48894;BMP280;34710;35.798;139.446;2023-06-22T08:14:15;99974.17;;;21.28
48894;BMP280;34710;35.798;139.446;2023-06-22T08:16:41;99975.20;;;21.16
48894;BMP280;34710;35.798;139.446;2023-06-22T08:19:06;99972.64;;;21.22
48894;BMP280;34710;35.798;139.446;2023-06-22T08:21:30;99975.83;;;20.53
48894;BMP280;34710;35.798;139.446;2023-06-22T08:23:56;99977.53;;;21.49
48894;BMP280;34710;35.798;139.446;2023-06-22T08:26:21;99974.44;;;21.39
48894;BMP280;34710;35.798;139.446;2023-06-22T08:28:47;99973.04;;;20.71
48894;BMP280;34710;35.798;139.446;2023-06-22T08:31:13;99973.41;;;21.06
48894;BMP280;34710;35.798;139.446;2023-06-22T08:33:38;99979.40;;;21.31
48894;BMP280;34710;35.798;139.446;2023-06-22T08:36:04;99987.91;;;21.31
48894;BMP280;34710;35.798;139.446;2023-06-22T08:38:28;99991.39;;;21.40
48894;BMP280;34710;35.798;139.446;2023-06-22T08:40:54;99992.32;;;20.52
48894;BMP280;34710;35.798;139.446;2023-06-22T08:43:19;99984.30;;;20.82
48894;BMP280;34710;35.798;139.446;2023-06-22T08:45:45;99981.35;;;20.86
48894;BMP280;34710;35.798;139.446;2023-06-22T08:48:11;99986.58;;;21.01
48894;BMP280;34710;35.798;139.446;2023-06-22T08:50:36;99991.59;;;20.78
48894;BMP280;34710;35.798;139.446;2023-06-22T08:53:01;99992.69;;;20.90
48894;BMP280;34710;35.798;139.446;2023-06-22T08:55:26;99989.10;;;20.77
48894;BMP280;34710;35.798;139.446;2023-06-22T08:57:51;99989.12;;;20.79
48894;BMP280;34710;35.798;139.446;2023-06-22T09:00:17;99988.53;;;21.02
48894;BMP280;34710;35.798;139.446;2023-06-22T09:02:43;99977.29;;;21.07
48894;BMP280;34710;35.798;139.446;2023-06-22T09:05:08;99968.90;;;20.96
48894;BMP280;34710;35.798;139.446;2023-06-22T09:07:33;99964.09;;;21.63
48894;BMP280;34710;35.798;139.446;2023-06-22T09:09:58;99966.45;;;20.72
48894;BMP280;34710;35.798;139.446;2023-06-22T09:12:24;99964.10;;;21.05
48894;BMP280;34710;35.798;139.446;2023-06-22T09:14:48;99963.59;;;21.42
48894;BMP280;34710;35.798;139.446;2023-06-22T09:17:14;99964.49;;;21.38
48894;BMP280;34710;35.798;139.446;2023-06-22T09:19:38;99960.07;;;20.75
48894;BMP280;34710;35.798;139.446;2023-06-22T09:22:05;99960.94;;;21.29
48894;BMP280;34710;35.798;139.446;2023-06-22T09:24:30;99958.96;;;20.96
48894;BMP280;34710;35.798;139.446;2023-06-22T09:26:54;99952.33;;;20.93
48894;BMP280;34710;35.798;139.446;2023-06-22T09:29:21;99949.88;;;21.15
48894;BMP280;34710;35.798;139.446;2023-06-22T09:31:46;99952.60;;;20.32
48894;BMP280;34710;35.798;139.446;2023-06-22T09:34:11;99951.94;;;20.42
48894;BMP280;34710;35.798;139.446;2023-06-22T09:36:36;99951.48;;;20.87
48894;BMP280;34710;35.798;139.446;2023-06-22T09:39:01;99954.95;;;21.36
48894;BMP280;34710;35.798;139.446;2023-06-22T09:41:27;99960.71;;;20.23
48894;BMP280;34710;35.798;139.446;2023-06-22T09:43:52;99961.60;;;20.47
48894;BMP280;34710;35.798;139.446;2023-06-22T09:46:18;99962.28;;;21.04
48894;BMP280;34710;35.798;139.446;2023-06-22T09:48:42;99967.83;;;20.58
48894;BMP280;34710;35.798;139.446;2023-06-22T09:51:08;99974.49;;;20.45
48894;BMP280;34710;35.798;139.446;2023-06-22T09:53:33;99982.85;;;20.48
48894;BMP280;34710;35.798;139.446;2023-06-22T09:55:59;99996.71;;;20.53
48894;BMP280;34710;35.798;139.446;2023-06-22T09:58:24;100012.09;;;20.71
48894;BMP280;34710;35.798;139.446;2023-06-22T10:00:49;100021.61;;;20.45
48894;BMP280;34710;35.798;139.446;2023-06-22T10:03:15;100022.00;;;19.27
48894;BMP280;34710;35.798;139.446;2023-06-22T10:05:40;100020.89;;;20.15
48894;BMP280;34710;35.798;139.446;2023-06-22T10:08:05;100020.14;;;20.12
48894;BMP280;34710;35.798;139.446;2023-06-22T10:10:31;100009.06;;;20.07
48894;BMP280;34710;35.798;139.446;2023-06-22T10:13:01;99994.23;;;19.77
48894;BMP280;34710;35.798;139.446;2023-06-22T10:15:21;99990.56;;;20.07
48894;BMP280;34710;35.798;139.446;2023-06-22T10:17:47;99992.29;;;20.07
48894;BMP280;34710;35.798;139.446;2023-06-22T10:20:12;99988.32;;;20.12
48894;BMP280;34710;35.798;139.446;2023-06-22T10:22:38;99984.52;;;20.64
48894;BMP280;34710;35.798;139.446;2023-06-22T10:25:03;99976.85;;;19.82
48894;BMP280;34710;35.798;139.446;2023-06-22T10:27:28;99971.19;;;20.13
48894;BMP280;34710;35.798;139.446;2023-06-22T10:29:53;99967.33;;;20.27
48894;BMP280;34710;35.798;139.446;2023-06-22T10:32:19;99974.46;;;20.50
48894;BMP280;34710;35.798;139.446;2023-06-22T10:34:44;99981.02;;;20.34
48894;BMP280;34710;35.798;139.446;2023-06-22T10:37:09;99981.01;;;20.03
48894;BMP280;34710;35.798;139.446;2023-06-22T10:39:34;99977.56;;;19.79
48894;BMP280;34710;35.798;139.446;2023-06-22T10:41:59;99981.14;;;19.58
48894;BMP280;34710;35.798;139.446;2023-06-22T10:44:25;99985.18;;;19.58
48894;BMP280;34710;35.798;139.446;2023-06-22T10:46:50;99993.01;;;19.23
48894;BMP280;34710;35.798;139.446;2023-06-22T10:49:16;99997.66;;;19.08
48894;BMP280;34710;35.798;139.446;2023-06-22T10:51:41;100003.13;;;18.97
48894;BMP280;34710;35.798;139.446;2023-06-22T10:54:07;100006.39;;;18.65
48894;BMP280;34710;35.798;139.446;2023-06-22T10:56:32;99998.76;;;19.20
48894;BMP280;34710;35.798;139.446;2023-06-22T10:58:58;100002.28;;;19.43
48894;BMP280;34710;35.798;139.446;2023-06-22T11:01:23;99998.67;;;19.72
48894;BMP280;34710;35.798;139.446;2023-06-22T11:03:49;100014.52;;;19.62
48894;BMP280;34710;35.798;139.446;2023-06-22T11:06:15;100012.98;;;19.84
48894;BMP280;34710;35.798;139.446;2023-06-22T11:08:39;100005.57;;;19.18
48894;BMP280;34710;35.798;139.446;2023-06-22T11:11:05;100010.21;;;19.38
48894;BMP280;34710;35.798;139.446;2023-06-22T11:13:30;100009.16;;;19.64
48894;BMP280;34710;35.798;139.446;2023-06-22T11:15:56;100008.71;;;18.91
48894;BMP280;34710;35.798;139.446;2023-06-22T11:18:21;100011.75;;;19.67
48894;BMP280;34710;35.798;139.446;2023-06-22T11:20:46;100008.88;;;19.60
48894;BMP280;34710;35.798;139.446;2023-06-22T11:23:12;100016.75;;;19.51
48894;BMP280;34710;35.798;139.446;2023-06-22T11:25:37;100027.83;;;19.81
48894;BMP280;34710;35.798;139.446;2023-06-22T11:28:03;100031.15;;;19.68
48894;BMP280;34710;35.798;139.446;2023-06-22T11:30:28;100028.54;;;18.62
48894;BMP280;34710;35.798;139.446;2023-06-22T11:32:53;100021.21;;;19.39
48894;BMP280;34710;35.798;139.446;2023-06-22T11:35:18;100024.23;;;19.48
48894;BMP280;34710;35.798;139.446;2023-06-22T11:37:44;100028.01;;;19.23
48894;BMP280;34710;35.798;139.446;2023-06-22T11:40:10;100031.44;;;18.58
48894;BMP280;34710;35.798;139.446;2023-06-22T11:42:34;100022.15;;;19.05
48894;BMP280;34710;35.798;139.446;2023-06-22T11:45:00;100014.79;;;18.96
48894;BMP280;34710;35.798;139.446;2023-06-22T11:47:26;100008.20;;;18.76
48894;BMP280;34710;35.798;139.446;2023-06-22T11:49:51;100015.11;;;19.54
48894;BMP280;34710;35.798;139.446;2023-06-22T11:52:16;100020.02;;;19.29
48894;BMP280;34710;35.798;139.446;2023-06-22T11:54:42;100019.76;;;19.07
48894;BMP280;34710;35.798;139.446;2023-06-22T11:57:08;100020.33;;;18.71
48894;BMP280;34710;35.798;139.446;2023-06-22T11:59:33;100020.24;;;19.32
48894;BMP280;34710;35.798;139.446;2023-06-22T12:01:59;100023.02;;;19.07
48894;BMP280;34710;35.798;139.446;2023-06-22T12:04:24;100017.25;;;19.37
48894;BMP280;34710;35.798;139.446;2023-06-22T12:06:49;100019.00;;;18.68
48894;BMP280;34710;35.798;139.446;2023-06-22T12:09:15;100018.47;;;19.12
48894;BMP280;34710;35.798;139.446;2023-06-22T12:11:39;100018.10;;;18.77
48894;BMP280;34710;35.798;139.446;2023-06-22T12:14:05;100012.00;;;19.40
48894;BMP280;34710;35.798;139.446;2023-06-22T12:16:30;100003.80;;;19.22
48894;BMP280;34710;35.798;139.446;2023-06-22T12:18:55;100010.93;;;18.96
48894;BMP280;34710;35.798;139.446;2023-06-22T12:21:21;100004.00;;;18.48
48894;BMP280;34710;35.798;139.446;2023-06-22T12:23:46;99996.45;;;18.85
48894;BMP280;34710;35.798;139.446;2023-06-22T12:26:11;99987.96;;;18.99
48894;BMP280;34710;35.798;139.446;2023-06-22T12:28:37;99990.87;;;19.16
48894;BMP280;34710;35.798;139.446;2023-06-22T12:31:03;99986.91;;;19.07
48894;BMP280;34710;35.798;139.446;2023-06-22T12:33:27;99980.17;;;19.34
48894;BMP280;34710;35.798;139.446;2023-06-22T12:35:53;99974.78;;;19.41
48894;BMP280;34710;35.798;139.446;2023-06-22T12:38:18;99978.66;;;18.50
48894;BMP280;34710;35.798;139.446;2023-06-22T12:40:43;99978.16;;;19.48
48894;BMP280;34710;35.798;139.446;2023-06-22T12:43:09;99971.74;;;18.83
48894;BMP280;34710;35.798;139.446;2023-06-22T12:45:35;99969.69;;;18.61
48894;BMP280;34710;35.798;139.446;2023-06-22T12:48:00;99962.74;;;19.39
48894;BMP280;34710;35.798;139.446;2023-06-22T12:50:25;99959.88;;;19.32
48894;BMP280;34710;35.798;139.446;2023-06-22T12:52:50;99954.43;;;19.25
48894;BMP280;34710;35.798;139.446;2023-06-22T12:55:16;99942.44;;;19.20
48894;BMP280;34710;35.798;139.446;2023-06-22T12:57:42;99951.81;;;19.69
48894;BMP280;34710;35.798;139.446;2023-06-22T13:00:08;99955.41;;;19.46
48894;BMP280;34710;35.798;139.446;2023-06-22T13:02:33;99961.56;;;19.08
48894;BMP280;34710;35.798;139.446;2023-06-22T13:04:58;99954.76;;;18.44
48894;BMP280;34710;35.798;139.446;2023-06-22T13:07:24;99946.33;;;19.30
48894;BMP280;34710;35.798;139.446;2023-06-22T13:09:49;99935.77;;;19.59
48894;BMP280;34710;35.798;139.446;2023-06-22T13:12:15;99932.43;;;19.66
48894;BMP280;34710;35.798;139.446;2023-06-22T13:14:40;99926.55;;;19.60
48894;BMP280;34710;35.798;139.446;2023-06-22T13:17:05;99924.71;;;18.86
48894;BMP280;34710;35.798;139.446;2023-06-22T13:19:31;99919.07;;;19.69
48894;BMP280;34710;35.798;139.446;2023-06-22T13:21:55;99916.21;;;19.48
48894;BMP280;34710;35.798;139.446;2023-06-22T13:24:20;99915.32;;;18.61